Terminal Aerodrome Forecast
Issued by NWS

Home | Current Version | Previous Version | Text Only | Print | Product List | Glossary On
Versions: 1 2 3 4 5 6 7 8 9 10 11 12 13 14 15 16 17 18 19 20 21 22 23 24
798
FTUS45 KCYS 211728
TAFAIA
TAF
KAIA 211728Z 2118/2218 32020G30KT P6SM SKC
     FM220000 29010KT P6SM SKC
     FM221700 28016G26KT P6SM SCT250=

USA.gov is the U.S. government's official web portal to all federal, state and local government web resources and services.